• Join FlightAware (Why Join?)
  • Login
  • US Flag 
12:38PM EDT


 

Airport Tracker/Info


-or-


 

Live Flight TrackerFlight Track Log ✈ ASQ6115 ✈ 05-Jun-2013 ✈ KDEN - KHSV

Flight Track Log - Related Links

Times and Time Zones

All times are in EDT time to prevent confusion due to time zone crossing. See the ASQ6115 flight status page for this flight to view local times or setup timezone preferences in your user account.

Time Position Orientation Groundspeed Altitude Reporting Facility
EDT Latitude Longitude Course Direction KTS MPH feet Rate Location/Type
09:59PM 39.8167 -104.6333 134° Southeast 179 206 6,700  Level Denver TRACON
10:01PM 39.7656 -104.5639 134° Southeast 230 265 9,100 1,620 Climbing Denver Center
10:02PM 39.7669 -104.4572 89° East 282 325 10,700 1,680 Climbing Denver Center
10:03PM 39.7678 -104.3411 89° East 321 369 12,600 1,500 Climbing Denver Center
10:04PM 39.7658 -104.2028 91° East 358 412 13,800 1,200 Climbing Denver Center
10:05PM 39.7647 -104.0617 91° East 390 449 15,100 1,320 Climbing Denver Center
10:06PM 39.7611 -103.9039 92° East 405 466 16,600 1,380 Climbing Denver Center
10:07PM 39.7297 -103.7592 106° East 415 478 18,000 1,560 Climbing Denver Center
10:08PM 39.6839 -103.6233 114° Southeast 401 461 19,900 1,800 Climbing Denver Center
10:09PM 39.6397 -103.4881 113° Southeast 408 470 21,700 1,740 Climbing Denver Center
10:10PM 39.5958 -103.3531 113° Southeast 407 468 23,500 1,680 Climbing Denver Center
10:11PM 39.5511 -103.2200 114° Southeast 404 465 25,200 1,740 Climbing Denver Center
10:12PM 39.5069 -103.0889 114° Southeast 399 459 27,100 1,620 Climbing Denver Center
10:13PM 39.4639 -102.9594 113° Southeast 394 453 28,600 1,560 Climbing Denver Center
10:14PM 39.4122 -102.8053 113° Southeast 390 449 30,400 1,560 Climbing Denver Center
10:15PM 39.3689 -102.6781 114° Southeast 389 448 31,900 1,260 Climbing Denver Center
10:16PM 39.3256 -102.5522 114° Southeast 394 453 33,000 1,200 Climbing Denver Center
10:17PM 39.2772 -102.4086 113° Southeast 392 451 34,400 960 Climbing Denver Center
10:18PM 39.2347 -102.2856 114° Southeast 391 450 35,000 540 Climbing Denver Center
10:19PM 39.1908 -102.1583 114° Southeast 402 463 35,600 780 Climbing Denver Center
10:20PM 39.1394 -102.0117 114° Southeast 404 465 36,700 660 Climbing Denver Center
10:21PM 39.0958 -101.8861 114° Southeast 402 463 37,000 120 Climbing Denver Center
10:22PM 39.0422 -101.7308 114° Southeast 425 489 37,000  Level Denver Center
10:23PM 38.9933 -101.5936 115° Southeast 440 506 37,000  Level Denver Center
10:24PM 38.9339 -101.4264 115° Southeast 459 528 37,000  Level Denver Center
10:25PM 38.8803 -101.2761 115° Southeast 479 551 37,000  Level Denver Center
10:26PM 38.8275 -101.1244 114° Southeast 484 557 37,000  Level Denver Center
10:27PM 38.7625 -100.9467 115° Southeast 491 565 37,000  Level Denver Center
10:28PM 38.7069 -100.7933 115° Southeast 494 568 37,000  Level Denver Center
10:29PM 38.6425 -100.6131 115° Southeast 499 574 37,000  Level Denver Center
10:30PM 38.5867 -100.4617 115° Southeast 493 567 37,000  Level Denver Center
10:31PM 38.5392 -100.3339 115° Southeast 495 570 37,000  Level Kansas City Center
10:32PM 38.4833 -100.1822 115° Southeast 493 567 37,000  Level Kansas City Center
10:33PM 38.4167 -100.0031 115° Southeast 497 572 37,000  Level Kansas City Center
10:34PM 38.3597 -99.8503 115° Southeast 498 573 37,000  Level Kansas City Center
10:35PM 38.2936 -99.6733 115° Southeast 496 571 37,000  Level Kansas City Center
10:36PM 38.2358 -99.5194 116° Southeast 500 575 37,000  Level Kansas City Center
10:37PM 38.1669 -99.3911 124° Southeast 493 567 37,000  Level Kansas City Center
10:38PM 38.0844 -99.2533 127° Southeast 493 567 37,000  Level Kansas City Center
10:39PM 38.0308 -99.0531 109° East 501 577 37,000  Level Kansas City Center
10:40PM 37.9833 -98.8861 110° East 503 579 37,000  Level Kansas City Center
10:41PM 37.9356 -98.7219 110° East 500 575 37,000  Level Kansas City Center
10:42PM 37.8889 -98.5567 110° East 501 577 37,000  Level Kansas City Center
10:43PM 37.8422 -98.3917 110° East 500 575 37,000  Level Kansas City Center
10:44PM 37.7950 -98.2278 110° East 500 575 37,000  Level Kansas City Center
10:46PM 37.7450 -98.0650 111° Southeast 500 575 37,000  Level Kansas City Center
10:47PM 37.6953 -97.8967 110° East 505 581 37,000  Level Kansas City Center
10:48PM 37.6350 -97.6953 111° Southeast 508 585 37,000  Level Kansas City Center
10:49PM 37.5917 -97.5417 110° East 503 579 37,000  Level Kansas City Center
10:50PM 37.5433 -97.3781 110° East 500 575 37,000  Level Kansas City Center
10:51PM 37.4947 -97.2147 111° Southeast 501 577 37,000  Level Kansas City Center
10:52PM 37.4444 -97.0511 111° Southeast 501 577 37,000  Level Kansas City Center
10:53PM 37.3956 -96.8886 111° Southeast 498 573 37,000  Level Kansas City Center
10:54PM 37.3458 -96.7269 111° Southeast 497 572 37,000  Level Kansas City Center
10:55PM 37.2969 -96.5639 111° Southeast 499 574 37,000  Level Kansas City Center
10:56PM 37.2442 -96.3944 111° Southeast 497 572 37,000  Level Kansas City Center
10:57PM 37.1942 -96.2317 111° Southeast 499 574 37,000  Level Kansas City Center
10:58PM 37.1339 -96.0389 111° Southeast 495 570 37,000  Level Kansas City Center
10:59PM 37.0828 -95.8803 112° Southeast 491 565 37,000  Level Kansas City Center
11:00PM 37.0325 -95.7231 112° Southeast 486 559 37,000  Level Kansas City Center
11:01PM 36.9819 -95.5661 112° Southeast 484 557 37,000  Level Kansas City Center
11:02PM 36.9314 -95.4117 112° Southeast 478 550 37,000  Level Kansas City Center
11:03PM 36.8817 -95.2583 112° Southeast 473 544 37,000  Level Kansas City Center
11:04PM 36.8308 -95.1025 112° Southeast 477 549 37,000  Level Kansas City Center
11:05PM 36.7789 -94.9472 113° Southeast 478 550 37,000  Level Kansas City Center
11:06PM 36.7286 -94.7947 112° Southeast 473 544 37,000  Level Kansas City Center
11:07PM 36.6800 -94.6439 112° Southeast 470 541 37,000  Level Kansas City Center
11:08PM 36.6303 -94.4911 112° Southeast 469 540 37,000  Level Kansas City Center
11:09PM 36.5797 -94.3403 113° Southeast 471 542 37,000  Level Kansas City Center
11:10PM 36.5286 -94.1892 113° Southeast 472 543 37,000  Level Kansas City Center
11:11PM 36.4775 -94.0381 113° Southeast 473 544 37,000  Level Kansas City Center
11:12PM 36.4267 -93.8867 113° Southeast 473 544 37,000  Level Kansas City Center
11:13PM 36.3736 -93.7381 114° Southeast 475 547 37,000  Level Kansas City Center
11:14PM 36.3408 -93.6367 112° Southeast 468 539 37,000  Level Memphis Center
11:15PM 36.2883 -93.4906 114° Southeast 468 539 37,000  Level Memphis Center
11:16PM 36.2375 -93.3444 113° Southeast 462 532 37,000  Level Memphis Center
11:17PM 36.1889 -93.1961 112° Southeast 462 532 37,000  Level Memphis Center
11:18PM 36.1381 -93.0478 113° Southeast 462 532 37,000  Level Memphis Center
11:19PM 36.0867 -92.9047 114° Southeast 457 526 37,000  Level Memphis Center
11:20PM 36.0375 -92.7597 113° Southeast 457 526 37,000  Level Memphis Center
11:21PM 35.9861 -92.6144 114° Southeast 462 532 37,000  Level Memphis Center
11:22PM 35.9342 -92.4747 115° Southeast 457 526 37,000  Level Memphis Center
11:23PM 35.8844 -92.3272 113° Southeast 457 526 37,000  Level Memphis Center
11:24PM 35.8325 -92.1853 114° Southeast 457 526 37,000  Level Memphis Center
11:25PM 35.7803 -92.0408 114° Southeast 457 526 37,000  Level Memphis Center
11:26PM 35.7300 -91.8967 113° Southeast 457 526 37,000  Level Memphis Center
11:27PM 35.6797 -91.7525 113° Southeast 457 526 37,000  Level Memphis Center
11:28PM 35.6269 -91.6136 115° Southeast 457 526 37,000  Level Memphis Center
11:29PM 35.5761 -91.4725 114° Southeast 457 526 37,000  Level Memphis Center
11:30PM 35.5169 -91.3186 115° Southeast 457 526 37,000  Level Memphis Center
11:31PM 35.4656 -91.1778 114° Southeast 452 520 37,000  Level Memphis Center
11:32PM 35.4144 -91.0372 114° Southeast 447 514 37,000  Level Memphis Center
11:33PM 35.3608 -90.8994 115° Southeast 447 514 37,000  Level Memphis Center
11:34PM 35.3092 -90.7592 114° Southeast 447 514 37,000  Level Memphis Center
11:35PM 35.2594 -90.6189 113° Southeast 447 514 37,000  Level Memphis Center
11:36PM 35.2056 -90.4817 116° Southeast 442 509 37,000  Level Memphis Center
11:37PM 35.1575 -90.3544 115° Southeast 448 516 37,000  Level Memphis Center
11:38PM 35.1053 -90.2150 115° Southeast 448 516 37,000  Level Memphis Center
11:39PM 35.0528 -90.0756 115° Southeast 448 516 37,000  Level Memphis Center
11:40PM 35.0128 -89.9261 108° East 448 516 37,000  Level Memphis Center
11:41PM 34.9975 -89.7461 96° East 468 539 37,000  Level Memphis Center
11:42PM 34.9756 -89.5789 99° East 489 563 37,000  Level Memphis Center
11:43PM 34.9558 -89.4222 99° East 479 551 37,000  Level Memphis Center
11:44PM 34.9378 -89.2628 98° East 474 545 37,000 -60 Level Memphis Center
11:45PM 34.9175 -89.1036 99° East 474 545 36,900 -1,020 Descending Memphis Center
11:46PM 34.8992 -88.9492 98° East 465 535 35,000 -1,980 Descending Memphis Center
11:47PM 34.8850 -88.8128 97° East 460 529 33,000 -2,400 Descending Memphis Center
11:48PM 34.8642 -88.6564 99° East 467 537 30,300 -2,820 Descending Memphis Center
11:49PM 34.8431 -88.4847 98° East 467 537 27,400 -2,820 Descending Memphis Center
11:50PM 34.8258 -88.3231 97° East 467 537 24,700 -2,400 Descending Memphis Center
11:51PM 34.8092 -88.1972 99° East 467 537 22,700 -2,400 Descending Memphis Center
11:52PM 34.7914 -88.0256 97° East 466 536 20,000 -2,580 Descending Memphis Center
11:53PM 34.7714 -87.8644 99° East 454 522 17,600 -2,160 Descending Memphis Center
11:54PM 34.7522 -87.7411 101° East 428 493 15,700 -2,100 Descending Memphis Center
11:55PM 34.7369 -87.6100 98° East 414 476 13,500 -1,980 Descending Memphis Center
11:56PM 34.7217 -87.4919 99° East 379 436 11,800 -1,260 Descending Memphis Center
11:57PM 34.7086 -87.3811 98° East 346 398 11,000 -840 Descending Memphis Center
11:58PM 34.6956 -87.2678 98° East 339 390 10,200 -1,200 Descending Memphis Center
11:59PM 34.7014 -87.1692 86° East 315 362 8,700 -1,680 Descending Memphis Center
12:00AM 34.7069 -87.0681 86° East 301 346 6,900 -1,800 Descending Memphis Center
12:01AM 34.7128 -86.9742 86° East 290 334 5,200 -1,560 Descending Memphis Center
12:02AM 34.7208 -86.8831 84° East 278 320 3,800 -1,320 Descending Memphis Center
12:03AM 34.7247 -86.7969 87° East 267 307 2,600 -1,140 Descending Memphis Center
12:04AM 34.6861 -86.7658 146° Southeast 177 204 1,600 -900 Descending Memphis Center
12:05AM 34.6542 -86.7444 151° Southeast 133 153 800 -840 Descending Memphis Center